Route Details

Aircraft Information
Group: North America Fleet
Types: B738, B752, B762, B763
Route Data
Distance: 731nm
Duration: 2h 35m
Origin METAR: KBDL 171051Z 35003KT 10SM -RA SCT050 BKN060 OVC090 18/14 A3002 RMK AO2 SLP165 P0001 T01830144
Dest. METAR: KRFD 171054Z 00000KT 10SM FEW250 13/11 A3015 RMK AO2 SLP207 T01330111
Freight Data
(for Aug 18, 2022)
Load Factor:
36%
Manifested Cargo: 38,555lbs
Financial History
Total Freight: 125,520lbs
Average Load: 0lbs/flt
Fuel Used: 33,791lbs
Avg. Fuel Used: 0lbs/flt
Fuel Expense: $9,153
Avg. Fuel Expense: $0
Avg. Fuel Cost: $0/lbs
Total Gross Income: $298,774
Pilot Pay: $158
Total Expenses: $46,185
Total Revenue: $242,985
Average Revenue: $0

Capitol Logistics 453




KBDL
Bradley International Airport
Windsor Locks, Connecticut
KRFD
Chicago/Rockford International Airport
Rockford, Illinois

Activity Log

Date Flight Route Aircraft Duration
07/10/2022 CPX453 CTR HNK JHW CRL J554 GIJ DPA B738 2h 04m
10/03/2021 CPX7346 CTR CAM Q822 FNT VIO OBK KRENA RFD B763 2h 25m